Time;durP1;ratioP1;P1;durP2;ratioP2;P2;SDS_P1;SDS_P2;PMS_P1;PMS_P2;Temp;Humidity;BMP_temperature;BMP_pressure;BME280_temperature;BME280_humidity;BME280_pressure;Samples;Min_cycle;Max_cycle;Signal;HPM_P1;HPM_P2
2023/11/21 00:00:35;;;;;;;4.70;3.65;;;1.50;99.90;;;;;;5046566;28;20063;-60
2023/11/21 00:03:03;;;;;;;9.20;4.45;;;1.50;99.90;;;;;;5050863;28;20068;-61
2023/11/21 00:05:30;;;;;;;7.35;5.20;;;1.50;99.90;;;;;;5051277;28;20047;-62
2023/11/21 00:07:57;;;;;;;6.00;4.53;;;1.40;99.90;;;;;;5056960;28;20049;-59
2023/11/21 00:10:24;;;;;;;5.90;4.10;;;1.40;99.90;;;;;;5051654;28;20068;-60
2023/11/21 00:12:51;;;;;;;6.03;4.03;;;1.40;99.90;;;;;;5046180;28;20041;-62
2023/11/21 00:15:18;;;;;;;7.63;4.88;;;1.40;99.90;;;;;;5052463;28;20439;-67
2023/11/21 00:17:46;;;;;;;5.97;4.20;;;1.40;99.90;;;;;;5054197;28;20041;-63
2023/11/21 00:20:13;;;;;;;7.10;4.10;;;1.40;99.90;;;;;;5059967;28;20046;-63
2023/11/21 00:22:41;;;;;;;4.45;3.70;;;1.30;99.90;;;;;;5053869;28;20056;-60
2023/11/21 00:25:08;;;;;;;6.75;3.88;;;1.30;99.90;;;;;;5052531;28;20041;-59
2023/11/21 00:27:36;;;;;;;5.57;4.40;;;1.30;99.90;;;;;;5045920;28;20441;-59
2023/11/21 00:30:07;;;;;;;5.00;4.00;;;1.30;99.90;;;;;;5055127;28;20049;-61
2023/11/21 00:32:36;;;;;;;4.57;3.70;;;1.30;99.90;;;;;;5037249;28;20072;-60
2023/11/21 00:35:03;;;;;;;4.80;4.25;;;1.30;99.90;;;;;;5053341;28;20439;-62
2023/11/21 00:37:31;;;;;;;6.18;4.20;;;1.30;99.90;;;;;;5047737;28;20049;-65
2023/11/21 00:39:59;;;;;;;5.18;4.13;;;1.20;99.90;;;;;;5040334;28;20134;-59
2023/11/21 00:42:27;;;;;;;5.03;3.90;;;1.30;99.90;;;;;;5032901;28;20129;-60
2023/11/21 00:44:54;;;;;;;4.63;3.40;;;1.20;99.90;;;;;;5031539;28;20053;-59
2023/11/21 00:47:22;;;;;;;5.65;4.18;;;1.20;99.90;;;;;;5065334;28;20118;-59
2023/11/21 00:49:49;;;;;;;6.63;4.00;;;1.20;99.90;;;;;;5049346;28;20055;-59
2023/11/21 00:52:16;;;;;;;7.28;4.03;;;1.20;99.90;;;;;;5051357;28;20036;-60
2023/11/21 00:54:44;;;;;;;5.85;4.25;;;1.20;99.90;;;;;;5035015;28;20143;-60
2023/11/21 00:57:11;;;;;;;9.23;4.43;;;1.20;99.90;;;;;;5030744;28;20046;-60
2023/11/21 00:59:38;;;;;;;7.32;4.95;;;1.20;99.90;;;;;;5052177;28;20546;-59
2023/11/21 01:02:10;;;;;;;5.20;4.10;;;1.20;99.90;;;;;;5053841;28;20037;-60
2023/11/21 01:04:37;;;;;;;6.82;5.03;;;1.20;99.90;;;;;;5048788;28;20068;-60
2023/11/21 01:07:05;;;;;;;6.43;4.63;;;1.20;99.90;;;;;;5049760;28;20041;-58
2023/11/21 01:09:32;;;;;;;7.22;4.85;;;1.20;99.90;;;;;;5049824;28;20045;-62
2023/11/21 01:11:59;;;;;;;6.68;4.43;;;1.20;99.90;;;;;;5038892;28;20626;-60
2023/11/21 01:14:27;;;;;;;6.53;4.63;;;1.10;99.90;;;;;;5052938;28;20061;-59
2023/11/21 01:16:54;;;;;;;6.05;3.72;;;1.10;99.90;;;;;;5063812;28;20049;-59
2023/11/21 01:19:21;;;;;;;5.22;4.47;;;1.10;99.90;;;;;;5053360;28;20483;-66
2023/11/21 01:21:48;;;;;;;6.13;4.22;;;1.10;99.90;;;;;;5051387;28;20165;-61
2023/11/21 01:24:15;;;;;;;6.15;4.43;;;1.10;99.90;;;;;;5053636;28;20048;-65
2023/11/21 01:26:43;;;;;;;6.25;4.63;;;1.10;99.90;;;;;;5015339;28;20048;-59
2023/11/21 01:29:10;;;;;;;5.22;3.92;;;1.10;99.90;;;;;;5032006;28;20052;-61
2023/11/21 01:31:37;;;;;;;5.72;3.70;;;1.10;99.90;;;;;;5040425;28;20036;-59
2023/11/21 01:34:04;;;;;;;5.75;3.72;;;1.00;99.90;;;;;;5031686;28;20049;-60
2023/11/21 01:36:32;;;;;;;6.97;4.57;;;1.10;99.90;;;;;;5047596;28;20041;-64
2023/11/21 01:39:00;;;;;;;6.47;4.40;;;1.10;99.90;;;;;;5045132;28;20041;-63
2023/11/21 01:41:30;;;;;;;9.20;6.38;;;1.10;99.90;;;;;;5031019;28;20613;-65
2023/11/21 01:43:58;;;;;;;4.90;4.10;;;1.10;99.90;;;;;;5046775;28;20040;-59
2023/11/21 01:46:24;;;;;;;6.65;4.18;;;1.10;99.90;;;;;;5068717;28;20053;-61
2023/11/21 01:48:53;;;;;;;5.68;4.60;;;1.10;99.90;;;;;;5050875;28;20044;-60
2023/11/21 01:51:20;;;;;;;10.10;5.47;;;1.10;99.90;;;;;;5036159;28;20147;-59
2023/11/21 01:53:47;;;;;;;9.15;5.40;;;1.00;99.90;;;;;;5045818;28;20056;-59
2023/11/21 01:56:15;;;;;;;9.65;4.88;;;1.00;99.90;;;;;;5032277;28;20044;-60
2023/11/21 01:58:43;;;;;;;8.95;5.93;;;1.00;99.90;;;;;;5039506;28;20099;-61
2023/11/21 02:01:10;;;;;;;8.38;5.55;;;1.00;99.90;;;;;;5052098;28;20090;-62
2023/11/21 02:03:37;;;;;;;9.07;5.82;;;1.00;99.90;;;;;;5054571;28;20541;-66
2023/11/21 02:06:05;;;;;;;8.98;5.93;;;1.00;99.90;;;;;;5048642;28;20048;-60
2023/11/21 02:08:32;;;;;;;7.60;5.28;;;1.00;99.90;;;;;;5048575;28;20045;-61
2023/11/21 02:10:59;;;;;;;8.23;4.95;;;1.00;99.90;;;;;;5051642;28;20045;-59
2023/11/21 02:13:26;;;;;;;9.68;5.57;;;1.00;99.90;;;;;;5050801;28;20072;-60
2023/11/21 02:15:54;;;;;;;6.97;5.25;;;1.00;99.90;;;;;;5051546;28;20116;-66
2023/11/21 02:18:22;;;;;;;9.88;5.60;;;1.00;99.90;;;;;;5066118;28;20398;-61
2023/11/21 02:20:49;;;;;;;6.78;5.30;;;0.90;99.90;;;;;;5031728;28;20135;-59
2023/11/21 02:23:16;;;;;;;10.68;5.28;;;0.90;99.90;;;;;;5072550;28;20052;-60
2023/11/21 02:25:43;;;;;;;8.23;5.38;;;0.90;99.90;;;;;;5028941;28;20056;-59
2023/11/21 02:28:12;;;;;;;9.30;5.82;;;0.90;99.90;;;;;;5050597;28;20072;-58
2023/11/21 02:30:40;;;;;;;5.45;4.78;;;0.90;99.90;;;;;;5046651;28;20048;-59
2023/11/21 02:33:07;;;;;;;7.47;5.05;;;0.90;99.90;;;;;;5047393;28;20087;-63
2023/11/21 02:35:34;;;;;;;6.50;4.65;;;0.90;99.90;;;;;;5046039;28;20052;-61
2023/11/21 02:38:02;;;;;;;6.22;5.00;;;0.90;99.90;;;;;;5048737;28;20041;-61
2023/11/21 02:40:29;;;;;;;7.00;4.40;;;0.90;99.90;;;;;;5025519;28;20490;-66
2023/11/21 02:42:58;;;;;;;9.02;5.32;;;0.90;99.90;;;;;;5032016;28;20076;-60
2023/11/21 02:45:26;;;;;;;6.78;4.25;;;0.90;99.90;;;;;;5042962;28;20048;-60
2023/11/21 02:47:53;;;;;;;5.28;4.00;;;0.90;99.90;;;;;;5053159;28;20044;-62
2023/11/21 02:50:22;;;;;;;5.55;4.15;;;0.90;99.90;;;;;;5055577;28;20044;-60
2023/11/21 02:52:51;;;;;;;4.28;3.88;;;0.90;99.90;;;;;;5049153;28;20127;-61
2023/11/21 02:55:19;;;;;;;7.25;3.90;;;0.90;99.90;;;;;;5032266;28;20111;-62
2023/11/21 02:57:46;;;;;;;11.63;4.93;;;0.90;99.90;;;;;;5052184;28;20040;-60
2023/11/21 03:00:14;;;;;;;8.93;3.85;;;0.90;99.90;;;;;;5045314;28;20122;-62
2023/11/21 03:02:42;;;;;;;7.57;4.30;;;0.90;99.90;;;;;;5030064;28;20056;-60
2023/11/21 03:05:09;;;;;;;9.50;4.00;;;0.90;99.90;;;;;;5046611;28;20395;-60
2023/11/21 03:07:38;;;;;;;5.85;4.55;;;0.90;99.90;;;;;;5034959;28;20044;-63
2023/11/21 03:10:08;;;;;;;6.15;3.53;;;0.90;99.90;;;;;;5033106;28;20103;-60
2023/11/21 03:12:37;;;;;;;5.05;3.25;;;0.90;99.90;;;;;;5036205;28;20148;-63
2023/11/21 03:15:08;;;;;;;8.60;4.97;;;0.90;99.90;;;;;;5049693;28;20041;-60
2023/11/21 03:17:36;;;;;;;5.97;3.95;;;1.00;99.90;;;;;;5036548;28;20048;-68
2023/11/21 03:20:04;;;;;;;7.35;4.25;;;1.00;99.90;;;;;;5057100;28;20068;-62
2023/11/21 03:22:31;;;;;;;5.38;4.05;;;1.00;99.90;;;;;;5038936;28;20750;-65
2023/11/21 03:24:58;;;;;;;9.43;4.55;;;1.00;99.90;;;;;;5050047;28;20060;-62
2023/11/21 03:27:26;;;;;;;7.97;4.32;;;1.00;99.90;;;;;;5052002;28;20052;-63
2023/11/21 03:29:54;;;;;;;6.30;3.78;;;1.00;99.90;;;;;;5031668;28;20049;-61
2023/11/21 03:32:21;;;;;;;8.20;5.63;;;0.90;99.90;;;;;;5048206;28;20142;-62
2023/11/21 03:34:59;;;;;;;6.10;4.25;;;1.00;99.90;;;;;;5057987;28;20040;-59
2023/11/21 03:37:27;;;;;;;5.63;3.60;;;1.00;99.90;;;;;;5050411;28;20045;-60
2023/11/21 03:39:56;;;;;;;7.15;4.03;;;1.00;99.90;;;;;;5047900;28;20041;-61
2023/11/21 03:42:26;;;;;;;4.88;3.83;;;1.00;99.90;;;;;;5036074;28;20098;-60
2023/11/21 03:44:53;;;;;;;8.68;4.45;;;1.00;99.90;;;;;;5050411;28;20106;-59
2023/11/21 03:47:20;;;;;;;10.73;4.43;;;1.00;99.90;;;;;;5050174;28;20048;-60
2023/11/21 03:49:47;;;;;;;5.15;3.80;;;1.00;99.90;;;;;;5054595;28;20145;-60
2023/11/21 03:52:15;;;;;;;8.38;4.88;;;0.90;99.90;;;;;;5054621;28;20067;-61
2023/11/21 03:54:43;;;;;;;6.63;4.38;;;0.90;99.90;;;;;;5053278;28;20056;-60
2023/11/21 03:57:11;;;;;;;7.65;4.32;;;1.00;99.90;;;;;;5049807;28;20036;-61
2023/11/21 03:59:41;;;;;;;9.23;3.78;;;0.90;99.90;;;;;;5053966;28;20048;-60
2023/11/21 04:02:08;;;;;;;;;;;0.90;99.90;;;;;;5051862;28;20034;-60
2023/11/21 04:04:36;;;;;;;6.32;4.70;;;1.00;99.90;;;;;;5046599;28;19920;-63
2023/11/21 04:07:04;;;;;;;7.07;4.22;;;0.90;99.90;;;;;;5051009;28;20086;-62
2023/11/21 04:09:31;;;;;;;10.15;3.80;;;0.90;99.90;;;;;;5051091;28;20462;-60
2023/11/21 04:11:58;;;;;;;3.90;3.20;;;0.90;99.90;;;;;;5055257;28;20675;-63
2023/11/21 04:14:25;;;;;;;5.57;4.90;;;0.90;99.90;;;;;;5053208;28;20068;-61
2023/11/21 04:16:53;;;;;;;7.68;4.03;;;0.90;99.90;;;;;;5057260;28;20124;-60
2023/11/21 04:19:20;;;;;;;5.05;3.63;;;0.90;99.90;;;;;;5046537;28;20127;-62
2023/11/21 04:21:48;;;;;;;7.28;4.32;;;0.90;99.90;;;;;;5057698;28;20441;-60
2023/11/21 04:24:14;;;;;;;6.43;4.43;;;0.90;99.90;;;;;;5051156;28;20041;-59
2023/11/21 04:26:41;;;;;;;6.28;4.28;;;0.90;99.90;;;;;;5053220;28;20141;-60
2023/11/21 04:29:08;;;;;;;6.53;4.40;;;0.90;99.90;;;;;;5056196;28;20041;-61
2023/11/21 04:31:35;;;;;;;6.03;3.90;;;0.90;99.90;;;;;;5051793;28;20119;-63
2023/11/21 04:34:04;;;;;;;5.97;4.07;;;0.90;99.90;;;;;;5056035;28;20053;-62
2023/11/21 04:36:31;;;;;;;5.30;4.55;;;1.00;99.90;;;;;;5052479;28;20053;-64
2023/11/21 04:38:58;;;;;;;4.45;4.00;;;1.00;99.90;;;;;;5058341;28;20444;-60
2023/11/21 04:41:25;;;;;;;5.72;4.65;;;1.00;99.90;;;;;;5049201;28;20037;-63
2023/11/21 04:43:52;;;;;;;4.70;3.78;;;1.00;99.90;;;;;;5050907;28;20037;-59
2023/11/21 04:46:18;;;;;;;8.15;5.10;;;1.00;99.90;;;;;;5053503;28;20040;-61
2023/11/21 04:48:46;;;;;;;5.43;3.65;;;1.00;99.90;;;;;;5053498;28;20037;-61
2023/11/21 04:51:14;;;;;;;6.43;4.47;;;1.00;99.90;;;;;;5051997;28;20047;-59
2023/11/21 04:53:41;;;;;;;7.30;4.93;;;1.00;99.90;;;;;;5048772;28;20497;-60
2023/11/21 04:56:08;;;;;;;6.82;5.47;;;1.00;99.90;;;;;;5047367;28;20680;-63
2023/11/21 04:58:35;;;;;;;6.38;5.05;;;1.00;99.90;;;;;;5052386;28;20099;-60
2023/11/21 05:01:03;;;;;;;7.18;6.43;;;1.00;99.90;;;;;;5050345;28;20395;-63
2023/11/21 05:03:34;;;;;;;8.38;5.32;;;1.00;99.90;;;;;;5047368;28;20044;-65
2023/11/21 05:06:02;;;;;;;11.05;6.00;;;1.10;99.90;;;;;;5056196;28;20037;-67
2023/11/21 05:08:29;;;;;;;8.25;6.90;;;1.10;99.90;;;;;;5053548;28;20044;-62
2023/11/21 05:10:55;;;;;;;11.93;6.03;;;1.10;99.90;;;;;;5047941;28;20041;-61
2023/11/21 05:13:27;;;;;;;8.07;6.70;;;1.10;99.90;;;;;;5053861;28;20045;-59
2023/11/21 05:15:57;;;;;;;9.45;5.65;;;1.00;99.90;;;;;;5050297;28;20049;-61
2023/11/21 05:18:27;;;;;;;8.10;5.78;;;1.00;99.90;;;;;;5048862;28;20072;-60
2023/11/21 05:20:54;;;;;;;12.23;6.40;;;1.10;99.90;;;;;;5046779;28;20053;-59
2023/11/21 05:23:21;;;;;;;9.27;5.88;;;1.10;99.90;;;;;;5050280;28;20051;-63
2023/11/21 05:25:48;;;;;;;12.25;4.80;;;1.10;99.90;;;;;;5048735;28;20076;-60
2023/11/21 05:28:14;;;;;;;8.65;4.75;;;1.10;99.90;;;;;;5050226;28;20079;-61
2023/11/21 05:30:41;;;;;;;10.93;5.75;;;1.10;99.90;;;;;;5051438;28;20103;-63
2023/11/21 05:33:08;;;;;;;9.48;5.43;;;1.10;99.90;;;;;;5050073;28;20040;-59
2023/11/21 05:35:35;;;;;;;7.35;4.78;;;1.10;99.90;;;;;;5063887;28;20102;-60
2023/11/21 05:38:02;;;;;;;5.25;4.35;;;1.10;99.90;;;;;;5045690;28;20032;-64
2023/11/21 05:40:29;;;;;;;7.45;5.15;;;1.10;99.90;;;;;;5048701;28;20036;-60
2023/11/21 05:42:57;;;;;;;7.47;4.82;;;1.10;99.90;;;;;;5048768;28;20045;-59
2023/11/21 05:45:23;;;;;;;8.68;5.13;;;1.10;99.90;;;;;;5046949;28;20048;-60
2023/11/21 05:47:50;;;;;;;7.03;5.25;;;1.00;99.90;;;;;;5050294;28;20041;-61
2023/11/21 05:50:18;;;;;;;5.45;4.70;;;1.10;99.90;;;;;;5049414;28;20044;-62
2023/11/21 05:52:46;;;;;;;7.03;4.97;;;1.00;99.90;;;;;;5054238;28;20049;-62
2023/11/21 05:55:14;;;;;;;5.78;4.10;;;1.10;99.90;;;;;;5046899;28;20077;-60
2023/11/21 05:57:43;;;;;;;8.80;4.60;;;1.00;99.90;;;;;;5058097;28;20053;-62
2023/11/21 06:00:21;;;;;;;3.80;3.23;;;1.00;99.90;;;;;;5054417;28;20108;-60
2023/11/21 06:02:53;;;;;;;10.23;4.85;;;1.00;99.90;;;;;;5056027;28;20353;-59
2023/11/21 06:05:25;;;;;;;5.57;4.07;;;1.00;99.90;;;;;;5047436;28;20126;-63
2023/11/21 06:07:54;;;;;;;8.63;6.25;;;1.00;99.90;;;;;;5046275;28;20041;-60
2023/11/21 06:10:23;;;;;;;10.97;4.80;;;0.90;99.90;;;;;;5045103;28;20048;-62
2023/11/21 06:12:51;;;;;;;9.52;5.65;;;1.00;99.90;;;;;;5052553;28;20048;-62
2023/11/21 06:15:23;;;;;;;9.38;5.65;;;1.00;99.90;;;;;;5046389;28;20044;-63
2023/11/21 06:17:52;;;;;;;11.60;6.82;;;1.00;99.90;;;;;;5053831;28;20037;-60
2023/11/21 06:20:21;;;;;;;9.13;5.95;;;0.90;99.90;;;;;;5048074;28;20053;-59
2023/11/21 06:22:50;;;;;;;10.55;6.97;;;0.90;99.90;;;;;;5043886;28;20102;-61
2023/11/21 06:25:17;;;;;;;9.33;6.40;;;0.90;99.90;;;;;;5036007;28;20456;-59
2023/11/21 06:27:48;;;;;;;8.70;5.85;;;0.90;99.90;;;;;;5048813;28;20425;-60
2023/11/21 06:30:15;;;;;;;11.00;5.85;;;0.90;99.90;;;;;;5050224;28;20141;-59
2023/11/21 06:32:45;;;;;;;7.28;5.22;;;0.90;99.90;;;;;;5049409;28;20071;-59
2023/11/21 06:35:15;;;;;;;8.82;6.00;;;0.90;99.90;;;;;;5046350;28;20061;-60
2023/11/21 06:37:47;;;;;;;7.32;5.43;;;1.00;99.90;;;;;;5050231;28;20036;-62
2023/11/21 06:40:15;;;;;;;9.50;6.28;;;1.00;99.90;;;;;;5050218;28;20094;-65
2023/11/21 06:42:44;;;;;;;9.07;6.57;;;1.00;99.90;;;;;;5060851;28;20052;-64
2023/11/21 06:45:11;;;;;;;9.52;5.32;;;1.00;99.90;;;;;;5052121;28;20049;-59
2023/11/21 06:47:39;;;;;;;7.50;5.95;;;1.00;99.90;;;;;;5051593;28;20041;-60
2023/11/21 06:50:07;;;;;;;7.40;5.60;;;1.00;99.90;;;;;;5047420;28;20047;-61
2023/11/21 06:52:34;;;;;;;14.00;7.10;;;1.10;99.90;;;;;;5042799;28;20548;-61
2023/11/21 06:55:01;;;;;;;15.60;5.95;;;1.10;99.90;;;;;;5069534;28;20679;-60
2023/11/21 06:57:28;;;;;;;11.10;5.75;;;1.20;99.90;;;;;;5052105;28;20546;-60
2023/11/21 06:59:57;;;;;;;9.80;5.22;;;1.20;99.90;;;;;;5048111;28;20033;-60
2023/11/21 07:02:24;;;;;;;21.60;7.00;;;1.20;99.90;;;;;;5053885;28;20033;-67
2023/11/21 07:04:51;;;;;;;20.98;6.70;;;1.20;99.90;;;;;;5050718;28;20049;-63
2023/11/21 07:07:19;;;;;;;15.65;6.53;;;1.20;99.90;;;;;;5056453;28;20107;-59
2023/11/21 07:09:46;;;;;;;12.88;6.45;;;1.30;99.90;;;;;;5059223;28;20045;-59
2023/11/21 07:12:13;;;;;;;10.68;5.68;;;1.30;99.90;;;;;;5053518;28;20064;-61
2023/11/21 07:14:43;;;;;;;7.25;5.13;;;1.20;99.90;;;;;;5054785;28;20045;-60
2023/11/21 07:17:11;;;;;;;7.85;5.15;;;1.30;99.90;;;;;;5053318;28;20103;-60
2023/11/21 07:19:39;;;;;;;7.05;4.93;;;1.30;99.90;;;;;;5050545;28;20045;-61
2023/11/21 07:22:06;;;;;;;7.00;6.30;;;1.30;99.90;;;;;;5054327;28;20053;-62
2023/11/21 07:24:33;;;;;;;9.63;6.82;;;1.30;99.90;;;;;;5053708;28;20056;-67
2023/11/21 07:27:00;;;;;;;7.85;6.03;;;1.30;99.90;;;;;;5053134;28;20075;-60
2023/11/21 07:29:29;;;;;;;7.85;6.20;;;1.30;99.90;;;;;;5057628;28;20560;-59
2023/11/21 07:31:56;;;;;;;7.90;6.07;;;1.30;99.90;;;;;;5047021;28;20045;-60
2023/11/21 07:34:23;;;;;;;8.75;5.30;;;1.30;99.90;;;;;;5051119;28;20033;-60
2023/11/21 07:36:51;;;;;;;9.48;5.85;;;1.20;99.90;;;;;;5044891;28;20056;-60
2023/11/21 07:39:18;;;;;;;9.57;6.20;;;1.20;99.90;;;;;;5050676;28;20413;-64
2023/11/21 07:41:48;;;;;;;8.60;5.05;;;1.20;99.90;;;;;;5053243;28;20045;-62
2023/11/21 07:44:17;;;;;;;8.98;5.70;;;1.20;99.90;;;;;;5049895;28;20048;-64
2023/11/21 07:46:44;;;;;;;10.48;5.75;;;1.20;99.90;;;;;;5047261;28;20052;-63
2023/11/21 07:49:15;;;;;;;11.05;6.63;;;1.20;99.90;;;;;;5056398;28;20095;-62
2023/11/21 07:51:43;;;;;;;7.93;5.60;;;1.20;99.90;;;;;;5050255;28;20041;-61
2023/11/21 07:54:11;;;;;;;8.88;6.45;;;1.20;99.90;;;;;;5055691;28;20500;-59
2023/11/21 07:56:38;;;;;;;8.90;6.80;;;1.20;99.90;;;;;;5052210;28;20072;-61
2023/11/21 07:59:05;;;;;;;10.00;6.18;;;1.20;99.90;;;;;;5047629;28;20158;-61
2023/11/21 08:01:32;;;;;;;8.18;5.50;;;1.20;99.90;;;;;;5052388;28;20414;-64
2023/11/21 08:04:03;;;;;;;8.63;5.50;;;1.20;99.90;;;;;;5049009;28;20308;-60
2023/11/21 08:06:31;;;;;;;8.82;5.80;;;1.30;99.90;;;;;;5048168;28;20060;-62
2023/11/21 08:08:58;;;;;;;8.82;5.70;;;1.30;99.90;;;;;;5055136;28;20352;-61
2023/11/21 08:11:29;;;;;;;9.43;6.07;;;1.30;99.90;;;;;;5051384;28;20033;-60
2023/11/21 08:13:56;;;;;;;10.57;6.20;;;1.30;99.90;;;;;;5052353;28;20048;-63
2023/11/21 08:16:24;;;;;;;9.15;6.80;;;1.30;99.90;;;;;;5053341;28;20049;-60
2023/11/21 08:18:51;;;;;;;9.48;7.10;;;1.30;99.90;;;;;;5052104;28;20765;-60
2023/11/21 08:21:18;;;;;;;8.73;7.20;;;1.40;99.90;;;;;;5052411;28;20126;-60
2023/11/21 08:23:47;;;;;;;10.52;6.85;;;1.40;99.90;;;;;;5053875;28;20414;-62
2023/11/21 08:26:16;;;;;;;13.68;7.05;;;1.40;99.90;;;;;;5051518;28;20036;-63
2023/11/21 08:28:43;;;;;;;10.70;6.63;;;1.40;99.90;;;;;;5049213;28;20044;-59
2023/11/21 08:31:10;;;;;;;11.10;7.25;;;1.40;99.90;;;;;;5049612;28;20312;-60
2023/11/21 08:33:40;;;;;;;9.10;7.03;;;1.40;99.90;;;;;;5052916;28;20518;-60
2023/11/21 08:36:08;;;;;;;9.30;6.43;;;1.50;99.90;;;;;;5050244;28;20273;-62
2023/11/21 08:38:37;;;;;;;8.77;6.80;;;1.50;99.90;;;;;;5047897;28;20044;-64
2023/11/21 08:41:09;;;;;;;9.20;6.25;;;1.50;99.90;;;;;;5053102;28;20432;-63
2023/11/21 08:43:39;;;;;;;7.57;5.60;;;1.50;99.90;;;;;;5046935;28;20098;-61
2023/11/21 08:46:06;;;;;;;;;;;1.50;99.90;;;;;;5052508;28;20041;-61
2023/11/21 08:48:35;;;;;;;8.82;6.22;;;1.50;99.90;;;;;;5051378;28;19921;-66
2023/11/21 08:51:04;;;;;;;9.00;5.68;;;1.50;99.90;;;;;;5051997;28;20044;-64
2023/11/21 08:53:31;;;;;;;8.98;5.95;;;1.50;99.90;;;;;;5056472;28;20048;-65
2023/11/21 08:55:58;;;;;;;9.38;6.40;;;1.50;99.90;;;;;;5050481;28;20658;-59
2023/11/21 08:58:25;;;;;;;10.23;5.82;;;1.50;99.90;;;;;;5051757;28;20127;-62
2023/11/21 09:00:52;;;;;;;11.73;7.15;;;1.40;99.90;;;;;;5052057;28;20052;-60
2023/11/21 09:03:19;;;;;;;9.95;6.43;;;1.40;99.90;;;;;;5049889;28;20048;-59
2023/11/21 09:05:46;;;;;;;9.85;5.68;;;1.40;99.90;;;;;;5044270;28;20038;-60
2023/11/21 09:08:13;;;;;;;9.35;6.38;;;1.40;99.90;;;;;;5049576;28;20033;-61
2023/11/21 09:10:42;;;;;;;10.68;6.60;;;1.30;99.90;;;;;;5052007;28;20114;-59
2023/11/21 09:13:10;;;;;;;9.07;6.22;;;1.30;99.90;;;;;;5032140;28;20414;-60
2023/11/21 09:15:37;;;;;;;8.77;5.50;;;1.30;99.90;;;;;;5046735;28;20128;-63
2023/11/21 09:18:05;;;;;;;9.23;6.38;;;1.30;99.90;;;;;;5048492;28;20043;-60
2023/11/21 09:20:32;;;;;;;9.07;6.20;;;1.20;99.90;;;;;;5028617;28;20426;-61
2023/11/21 09:22:59;;;;;;;7.20;5.45;;;1.20;99.90;;;;;;5052075;28;20053;-59
2023/11/21 09:25:26;;;;;;;9.35;5.72;;;1.20;99.90;;;;;;5049355;28;20041;-62
2023/11/21 09:27:53;;;;;;;6.32;4.35;;;1.20;99.90;;;;;;5049346;28;20394;-59
2023/11/21 09:30:20;;;;;;;7.22;5.13;;;1.20;99.90;;;;;;5044189;28;20513;-59
2023/11/21 09:32:47;;;;;;;7.15;5.05;;;1.20;99.90;;;;;;5051142;28;20049;-61
2023/11/21 09:35:14;;;;;;;6.10;4.25;;;1.20;99.90;;;;;;5048712;28;20180;-59
2023/11/21 09:37:44;;;;;;;5.22;4.40;;;1.10;99.90;;;;;;5045253;28;20046;-59
2023/11/21 09:40:13;;;;;;;8.70;5.22;;;1.20;99.90;;;;;;5047402;28;20469;-63
2023/11/21 09:42:47;;;;;;;5.47;4.00;;;1.20;99.90;;;;;;5043904;28;20045;-60
2023/11/21 09:45:28;;;;;;;4.60;3.55;;;1.20;99.90;;;;;;5046897;28;20044;-59
2023/11/21 09:47:57;;;;;;;7.20;4.25;;;1.30;99.90;;;;;;5048653;28;20455;-63
2023/11/21 09:50:26;;;;;;;14.68;4.30;;;1.20;99.90;;;;;;5049463;28;20041;-60
2023/11/21 09:53:14;;;;;;;19.83;4.85;;;1.20;99.90;;;;;;5049449;28;20037;-59
2023/11/21 09:55:46;;;;;;;5.45;3.30;;;1.30;99.90;;;;;;5045867;28;20045;-62
2023/11/21 09:58:14;;;;;;;3.00;2.63;;;1.30;99.90;;;;;;5055594;28;20048;-59
2023/11/21 10:00:46;;;;;;;3.55;2.72;;;1.30;99.90;;;;;;5046415;28;20056;-62
2023/11/21 10:03:14;;;;;;;2.67;2.45;;;1.30;99.90;;;;;;5051889;28;20110;-61
2023/11/21 10:05:49;;;;;;;3.33;2.92;;;1.30;99.90;;;;;;5052098;28;20080;-61
2023/11/21 10:08:17;;;;;;;3.90;2.67;;;1.30;99.90;;;;;;5046995;28;20487;-60
2023/11/21 10:10:45;;;;;;;4.28;3.30;;;1.20;99.90;;;;;;5048483;28;20045;-60
2023/11/21 10:13:16;;;;;;;3.95;3.15;;;1.30;99.90;;;;;;5049667;28;20041;-59
2023/11/21 10:15:49;;;;;;;2.72;2.15;;;1.30;99.90;;;;;;5047276;28;20037;-64
2023/11/21 10:18:17;;;;;;;4.60;3.63;;;1.30;99.90;;;;;;5053840;28;20060;-62
2023/11/21 10:20:51;;;;;;;5.03;3.05;;;1.30;99.90;;;;;;5045856;28;20091;-62
2023/11/21 10:23:23;;;;;;;2.92;2.60;;;1.30;99.90;;;;;;5049364;28;20028;-59
2023/11/21 10:25:52;;;;;;;7.20;2.35;;;1.30;99.90;;;;;;5049772;28;20043;-60
2023/11/21 10:28:20;;;;;;;4.78;3.03;;;1.30;99.90;;;;;;5048086;28;20067;-66
2023/11/21 10:30:48;;;;;;;3.03;2.17;;;1.30;99.90;;;;;;5052414;28;20094;-60
2023/11/21 10:33:15;;;;;;;4.20;2.38;;;1.30;99.90;;;;;;5047985;28;20052;-66
2023/11/21 10:35:46;;;;;;;4.43;2.95;;;1.30;99.90;;;;;;5046923;28;20073;-61
2023/11/21 10:38:14;;;;;;;4.25;2.70;;;1.30;99.90;;;;;;5048578;28;20040;-60
2023/11/21 10:40:42;;;;;;;4.35;3.95;;;1.30;99.90;;;;;;5047699;28;20120;-59
2023/11/21 10:43:09;;;;;;;3.17;2.47;;;1.30;99.90;;;;;;5046890;28;20055;-61
2023/11/21 10:45:40;;;;;;;5.72;2.83;;;1.30;99.90;;;;;;5051642;28;20475;-64
2023/11/21 10:48:15;;;;;;;4.57;3.10;;;1.30;99.90;;;;;;5044986;28;20041;-63
2023/11/21 10:50:46;;;;;;;5.85;3.90;;;1.30;99.90;;;;;;5047488;28;20044;-59
2023/11/21 10:53:14;;;;;;;3.55;2.95;;;1.30;99.90;;;;;;5048417;28;20044;-59
2023/11/21 10:55:43;;;;;;;3.75;3.13;;;1.30;99.90;;;;;;5050671;28;20040;-61
2023/11/21 10:58:13;;;;;;;4.57;3.10;;;1.30;99.90;;;;;;5047880;28;20056;-60
2023/11/21 11:00:41;;;;;;;4.63;3.80;;;1.30;99.90;;;;;;5050414;28;20136;-59
2023/11/21 11:03:13;;;;;;;5.50;3.28;;;1.30;99.90;;;;;;5050455;28;20051;-66
2023/11/21 11:05:51;;;;;;;4.95;3.17;;;1.30;99.90;;;;;;5048485;28;20036;-59
2023/11/21 11:08:26;;;;;;;3.90;2.70;;;1.30;99.90;;;;;;5054157;28;20467;-61
2023/11/21 11:10:55;;;;;;;4.25;3.15;;;1.40;99.90;;;;;;5048914;28;20040;-60
2023/11/21 11:13:22;;;;;;;5.88;3.42;;;1.40;99.90;;;;;;5048555;28;20432;-61
2023/11/21 11:15:51;;;;;;;4.40;3.33;;;1.40;99.90;;;;;;5054474;28;20064;-62
2023/11/21 11:18:21;;;;;;;6.68;4.10;;;1.50;99.90;;;;;;5048657;28;20045;-61
2023/11/21 11:20:51;;;;;;;3.90;3.10;;;1.50;99.90;;;;;;5051253;28;20123;-61
2023/11/21 11:23:33;;;;;;;5.50;3.20;;;1.50;99.90;;;;;;5047557;28;20470;-69
2023/11/21 11:26:27;;;;;;;3.85;2.75;;;1.50;99.90;;;;;;5047711;28;20049;-64
2023/11/21 11:29:46;;;;;;;3.65;3.10;;;1.50;99.90;;;;;;5055527;28;20050;-59
2023/11/21 11:32:27;;;;;;;4.22;3.15;;;1.50;99.90;;;;;;5038557;28;20568;-62
2023/11/21 11:35:03;;;;;;;5.00;4.15;;;1.50;99.90;;;;;;5052718;28;20041;-63
2023/11/21 11:37:31;;;;;;;4.70;3.00;;;1.60;99.90;;;;;;5056367;28;20068;-64
2023/11/21 11:40:00;;;;;;;5.80;4.15;;;1.60;99.90;;;;;;5049919;28;20108;-61
2023/11/21 11:42:27;;;;;;;4.28;3.50;;;1.60;99.90;;;;;;5052293;28;20095;-59
2023/11/21 11:44:56;;;;;;;5.57;4.05;;;1.60;99.90;;;;;;5052902;28;20049;-59
2023/11/21 11:47:25;;;;;;;5.67;3.97;;;1.70;99.90;;;;;;5057994;28;20048;-60
2023/11/21 11:50:19;;;;;;;6.63;4.57;;;1.80;99.90;;;;;;5048199;28;20704;-61
2023/11/21 11:52:52;;;;;;;4.40;2.90;;;1.80;99.90;;;;;;5053444;28;20048;-61
2023/11/21 11:55:21;;;;;;;5.18;4.20;;;1.90;99.90;;;;;;5049801;28;20055;-61
2023/11/21 11:57:56;;;;;;;5.53;4.35;;;1.90;99.90;;;;;;5057002;28;20516;-61
2023/11/21 12:00:45;;;;;;;4.57;3.30;;;1.80;99.90;;;;;;5050892;28;20502;-62
2023/11/21 12:03:13;;;;;;;3.70;2.83;;;1.80;99.90;;;;;;5049708;28;20151;-62
2023/11/21 12:05:43;;;;;;;3.10;2.13;;;1.80;99.90;;;;;;5049347;28;20053;-63
2023/11/21 12:08:11;;;;;;;2.50;1.90;;;1.80;99.90;;;;;;5052564;28;20119;-63
2023/11/21 12:10:39;;;;;;;2.97;1.75;;;1.80;99.90;;;;;;5053067;28;20055;-62
2023/11/21 12:13:13;;;;;;;2.55;1.88;;;1.70;99.90;;;;;;5050482;28;20037;-61
2023/11/21 12:15:41;;;;;;;2.72;2.13;;;1.80;99.90;;;;;;5054306;28;20817;-60
2023/11/21 12:18:09;;;;;;;3.67;2.40;;;1.80;99.90;;;;;;5050163;28;20044;-60
2023/11/21 12:20:38;;;;;;;2.30;1.98;;;1.80;99.90;;;;;;5060835;28;20044;-61
2023/11/21 12:23:08;;;;;;;3.47;1.85;;;1.80;99.90;;;;;;5050201;28;20053;-64
2023/11/21 12:25:36;;;;;;;4.13;2.30;;;1.80;99.90;;;;;;5051386;28;20044;-64
2023/11/21 12:28:03;;;;;;;3.38;1.73;;;1.80;99.90;;;;;;5052209;28;20052;-61
2023/11/21 12:30:35;;;;;;;4.20;1.90;;;1.80;99.90;;;;;;5031672;28;20754;-62
2023/11/21 12:33:03;;;;;;;4.05;3.08;;;1.70;99.90;;;;;;5048497;28;20045;-62
2023/11/21 12:35:36;;;;;;;3.38;1.80;;;1.70;99.90;;;;;;5049430;28;20045;-63
2023/11/21 12:38:04;;;;;;;3.03;2.22;;;1.70;99.90;;;;;;5047887;28;20463;-60
2023/11/21 12:40:32;;;;;;;3.22;2.38;;;1.60;99.90;;;;;;5051663;28;20407;-62
2023/11/21 12:43:01;;;;;;;1.65;1.38;;;1.60;99.90;;;;;;5056298;28;20480;-60
2023/11/21 12:45:29;;;;;;;2.70;2.03;;;1.60;99.90;;;;;;5053072;28;20554;-61
2023/11/21 12:48:07;;;;;;;2.70;1.67;;;1.70;99.90;;;;;;5057917;28;20037;-60
2023/11/21 12:50:36;;;;;;;2.33;1.70;;;1.70;99.90;;;;;;5053726;28;20095;-63
2023/11/21 12:53:12;;;;;;;2.85;1.83;;;1.70;99.90;;;;;;5052389;28;20471;-60
2023/11/21 12:55:41;;;;;;;2.13;1.77;;;1.80;99.90;;;;;;5049161;28;20037;-61
2023/11/21 12:58:10;;;;;;;6.35;3.70;;;1.80;99.90;;;;;;5049780;28;20048;-61
2023/11/21 13:00:42;;;;;;;3.55;1.98;;;1.90;99.90;;;;;;5046049;28;20067;-61
2023/11/21 13:03:16;;;;;;;3.13;1.45;;;1.90;99.90;;;;;;5054606;28;20514;-62